Terminal Aerodrome Forecast
Issued by NWS Charleston, WV

Home | Current Version | Previous Version | Text Only | Print | Product List | Glossary On
Versions: 1 2 3 4 5 6 7 8 9 10 11 12 13 14 15 16 17 18 19 20 21 22 23 24 25 26 27 28
000
FTUS41 KRLX 040204 AAA
TAFBKW
TAF AMD
KBKW 040204Z 0402/0424 00000KT 4SM SHRA VCTS OVC010CB
     FM040400 00000KT 3SM SHRA BR OVC008
     FM040600 00000KT 2SM BR OVC005
     FM040900 00000KT 1SM BR OVC003
     FM041300 VRB03KT 4SM BR OVC008
     FM041500 34004KT 6SM BR OVC012
     FM041700 35005KT P6SM BKN025
     FM042200 32005KT P6SM BKN035=

USA.gov is the U.S. government's official web portal to all federal, state and local government web resources and services.